sensor_id;sensor_type;location;lat;lon;timestamp;P1;durP1;ratioP1;P2;durP2;ratioP2
4810;SDS011;2419;51.276;6.472;2023-05-07T00:01:29;5.60;;;4.93;;
4810;SDS011;2419;51.276;6.472;2023-05-07T00:03:57;5.17;;;4.60;;
4810;SDS011;2419;51.276;6.472;2023-05-07T00:06:27;6.83;;;5.13;;
4810;SDS011;2419;51.276;6.472;2023-05-07T00:08:56;6.23;;;5.23;;
4810;SDS011;2419;51.276;6.472;2023-05-07T00:11:24;8.67;;;4.73;;
4810;SDS011;2419;51.276;6.472;2023-05-07T00:13:53;7.87;;;4.77;;
4810;SDS011;2419;51.276;6.472;2023-05-07T00:16:21;6.23;;;4.80;;
4810;SDS011;2419;51.276;6.472;2023-05-07T00:18:49;5.50;;;4.70;;
4810;SDS011;2419;51.276;6.472;2023-05-07T00:21:17;5.33;;;4.77;;
4810;SDS011;2419;51.276;6.472;2023-05-07T00:23:46;5.07;;;4.20;;
4810;SDS011;2419;51.276;6.472;2023-05-07T00:26:14;8.57;;;4.53;;
4810;SDS011;2419;51.276;6.472;2023-05-07T00:28:44;7.47;;;4.83;;
4810;SDS011;2419;51.276;6.472;2023-05-07T00:31:12;6.13;;;4.57;;
4810;SDS011;2419;51.276;6.472;2023-05-07T00:33:40;4.90;;;4.00;;
4810;SDS011;2419;51.276;6.472;2023-05-07T00:36:08;10.30;;;5.13;;
4810;SDS011;2419;51.276;6.472;2023-05-07T00:38:36;7.40;;;4.80;;
4810;SDS011;2419;51.276;6.472;2023-05-07T00:41:06;6.20;;;5.20;;
4810;SDS011;2419;51.276;6.472;2023-05-07T00:43:34;6.37;;;4.80;;
4810;SDS011;2419;51.276;6.472;2023-05-07T00:46:02;4.80;;;4.30;;
4810;SDS011;2419;51.276;6.472;2023-05-07T00:48:30;7.00;;;4.73;;
4810;SDS011;2419;51.276;6.472;2023-05-07T00:50:59;5.10;;;4.60;;
4810;SDS011;2419;51.276;6.472;2023-05-07T00:53:27;4.83;;;4.33;;
4810;SDS011;2419;51.276;6.472;2023-05-07T00:55:55;7.73;;;4.30;;
4810;SDS011;2419;51.276;6.472;2023-05-07T00:58:25;7.20;;;4.70;;
4810;SDS011;2419;51.276;6.472;2023-05-07T01:00:53;9.10;;;5.23;;
4810;SDS011;2419;51.276;6.472;2023-05-07T01:03:21;5.37;;;4.20;;
4810;SDS011;2419;51.276;6.472;2023-05-07T01:05:49;6.43;;;4.90;;
4810;SDS011;2419;51.276;6.472;2023-05-07T01:08:19;5.77;;;4.60;;
4810;SDS011;2419;51.276;6.472;2023-05-07T01:10:48;6.03;;;5.03;;
4810;SDS011;2419;51.276;6.472;2023-05-07T01:13:16;5.33;;;4.83;;
4810;SDS011;2419;51.276;6.472;2023-05-07T01:15:46;5.93;;;4.93;;
4810;SDS011;2419;51.276;6.472;2023-05-07T01:18:14;9.03;;;4.87;;
4810;SDS011;2419;51.276;6.472;2023-05-07T01:20:43;7.53;;;4.60;;
4810;SDS011;2419;51.276;6.472;2023-05-07T01:23:12;6.37;;;4.33;;
4810;SDS011;2419;51.276;6.472;2023-05-07T01:25:40;6.20;;;4.30;;
4810;SDS011;2419;51.276;6.472;2023-05-07T01:28:10;4.77;;;4.23;;
4810;SDS011;2419;51.276;6.472;2023-05-07T01:30:40;6.27;;;4.57;;
4810;SDS011;2419;51.276;6.472;2023-05-07T01:33:12;5.10;;;4.60;;
4810;SDS011;2419;51.276;6.472;2023-05-07T01:35:43;4.47;;;4.07;;
4810;SDS011;2419;51.276;6.472;2023-05-07T01:38:15;5.43;;;4.17;;
4810;SDS011;2419;51.276;6.472;2023-05-07T01:40:44;5.50;;;4.27;;
4810;SDS011;2419;51.276;6.472;2023-05-07T01:43:13;5.37;;;4.40;;
4810;SDS011;2419;51.276;6.472;2023-05-07T01:45:41;4.90;;;4.30;;
4810;SDS011;2419;51.276;6.472;2023-05-07T01:48:11;6.20;;;5.03;;
4810;SDS011;2419;51.276;6.472;2023-05-07T01:50:41;5.93;;;4.33;;
4810;SDS011;2419;51.276;6.472;2023-05-07T01:53:10;5.97;;;4.43;;
4810;SDS011;2419;51.276;6.472;2023-05-07T01:55:39;5.70;;;4.53;;
4810;SDS011;2419;51.276;6.472;2023-05-07T01:58:08;5.47;;;4.20;;
4810;SDS011;2419;51.276;6.472;2023-05-07T02:00:36;5.70;;;4.53;;
4810;SDS011;2419;51.276;6.472;2023-05-07T02:03:04;6.83;;;4.63;;
4810;SDS011;2419;51.276;6.472;2023-05-07T02:05:40;5.33;;;4.80;;
4810;SDS011;2419;51.276;6.472;2023-05-07T02:08:30;4.97;;;4.40;;
4810;SDS011;2419;51.276;6.472;2023-05-07T02:11:00;6.53;;;4.70;;
4810;SDS011;2419;51.276;6.472;2023-05-07T02:13:32;7.43;;;4.77;;
4810;SDS011;2419;51.276;6.472;2023-05-07T02:16:02;6.47;;;5.23;;
4810;SDS011;2419;51.276;6.472;2023-05-07T02:18:33;5.17;;;4.23;;
4810;SDS011;2419;51.276;6.472;2023-05-07T02:21:01;5.87;;;4.90;;
4810;SDS011;2419;51.276;6.472;2023-05-07T02:23:30;6.17;;;5.03;;
4810;SDS011;2419;51.276;6.472;2023-05-07T02:25:58;6.60;;;4.97;;
4810;SDS011;2419;51.276;6.472;2023-05-07T02:28:27;6.17;;;4.70;;
4810;SDS011;2419;51.276;6.472;2023-05-07T02:31:00;9.00;;;5.87;;
4810;SDS011;2419;51.276;6.472;2023-05-07T02:33:30;8.80;;;5.97;;
4810;SDS011;2419;51.276;6.472;2023-05-07T02:36:04;7.47;;;5.67;;
4810;SDS011;2419;51.276;6.472;2023-05-07T02:38:34;5.83;;;4.83;;
4810;SDS011;2419;51.276;6.472;2023-05-07T02:41:04;5.20;;;4.70;;
4810;SDS011;2419;51.276;6.472;2023-05-07T02:43:34;9.90;;;4.63;;
4810;SDS011;2419;51.276;6.472;2023-05-07T02:46:02;6.30;;;5.33;;
4810;SDS011;2419;51.276;6.472;2023-05-07T02:48:33;5.80;;;4.83;;
4810;SDS011;2419;51.276;6.472;2023-05-07T02:51:02;6.10;;;5.10;;
4810;SDS011;2419;51.276;6.472;2023-05-07T02:53:32;7.10;;;5.10;;
4810;SDS011;2419;51.276;6.472;2023-05-07T02:56:00;5.00;;;4.10;;
4810;SDS011;2419;51.276;6.472;2023-05-07T02:58:29;5.20;;;4.30;;
4810;SDS011;2419;51.276;6.472;2023-05-07T03:00:59;6.30;;;5.23;;
4810;SDS011;2419;51.276;6.472;2023-05-07T03:03:32;8.00;;;4.27;;
4810;SDS011;2419;51.276;6.472;2023-05-07T03:06:00;7.67;;;4.67;;
4810;SDS011;2419;51.276;6.472;2023-05-07T03:08:28;5.40;;;4.90;;
4810;SDS011;2419;51.276;6.472;2023-05-07T03:10:56;5.83;;;4.90;;
4810;SDS011;2419;51.276;6.472;2023-05-07T03:13:24;6.33;;;4.80;;
4810;SDS011;2419;51.276;6.472;2023-05-07T03:15:53;8.00;;;4.63;;
4810;SDS011;2419;51.276;6.472;2023-05-07T03:18:22;5.20;;;4.50;;
4810;SDS011;2419;51.276;6.472;2023-05-07T03:20:51;8.33;;;4.53;;
4810;SDS011;2419;51.276;6.472;2023-05-07T03:23:19;8.00;;;4.90;;
4810;SDS011;2419;51.276;6.472;2023-05-07T03:25:50;7.27;;;4.57;;
4810;SDS011;2419;51.276;6.472;2023-05-07T03:28:18;5.53;;;4.20;;
4810;SDS011;2419;51.276;6.472;2023-05-07T03:30:51;6.17;;;4.50;;
4810;SDS011;2419;51.276;6.472;2023-05-07T03:33:19;4.70;;;4.20;;
4810;SDS011;2419;51.276;6.472;2023-05-07T03:35:49;4.83;;;4.33;;
4810;SDS011;2419;51.276;6.472;2023-05-07T03:38:22;6.87;;;4.80;;
4810;SDS011;2419;51.276;6.472;2023-05-07T03:40:50;5.83;;;4.27;;
4810;SDS011;2419;51.276;6.472;2023-05-07T03:43:18;4.70;;;4.27;;
4810;SDS011;2419;51.276;6.472;2023-05-07T03:45:51;5.63;;;4.27;;
4810;SDS011;2419;51.276;6.472;2023-05-07T03:48:23;7.27;;;4.63;;
4810;SDS011;2419;51.276;6.472;2023-05-07T03:50:55;6.77;;;4.50;;
4810;SDS011;2419;51.276;6.472;2023-05-07T03:53:28;10.10;;;4.90;;
4810;SDS011;2419;51.276;6.472;2023-05-07T03:55:56;5.70;;;4.63;;
4810;SDS011;2419;51.276;6.472;2023-05-07T03:58:24;6.33;;;4.20;;
4810;SDS011;2419;51.276;6.472;2023-05-07T04:00:56;6.10;;;4.83;;
4810;SDS011;2419;51.276;6.472;2023-05-07T04:03:26;4.80;;;4.20;;
4810;SDS011;2419;51.276;6.472;2023-05-07T04:05:58;6.37;;;4.93;;
4810;SDS011;2419;51.276;6.472;2023-05-07T04:08:26;8.80;;;4.57;;
4810;SDS011;2419;51.276;6.472;2023-05-07T04:10:55;4.70;;;4.00;;
4810;SDS011;2419;51.276;6.472;2023-05-07T04:13:25;6.20;;;4.73;;
4810;SDS011;2419;51.276;6.472;2023-05-07T04:15:54;6.37;;;4.53;;
4810;SDS011;2419;51.276;6.472;2023-05-07T04:18:26;8.10;;;4.70;;
4810;SDS011;2419;51.276;6.472;2023-05-07T04:20:54;6.60;;;4.40;;
4810;SDS011;2419;51.276;6.472;2023-05-07T04:23:23;5.23;;;4.57;;
4810;SDS011;2419;51.276;6.472;2023-05-07T04:25:52;6.27;;;4.27;;
4810;SDS011;2419;51.276;6.472;2023-05-07T04:28:30;6.53;;;4.27;;
4810;SDS011;2419;51.276;6.472;2023-05-07T04:30:58;3.90;;;3.50;;
4810;SDS011;2419;51.276;6.472;2023-05-07T04:33:26;4.53;;;4.10;;
4810;SDS011;2419;51.276;6.472;2023-05-07T04:35:56;6.47;;;4.43;;
4810;SDS011;2419;51.276;6.472;2023-05-07T04:38:30;5.00;;;3.67;;
4810;SDS011;2419;51.276;6.472;2023-05-07T04:41:02;7.23;;;3.73;;
4810;SDS011;2419;51.276;6.472;2023-05-07T04:43:33;5.00;;;4.30;;
4810;SDS011;2419;51.276;6.472;2023-05-07T04:46:01;4.70;;;3.97;;
4810;SDS011;2419;51.276;6.472;2023-05-07T04:48:30;5.43;;;3.70;;
4810;SDS011;2419;51.276;6.472;2023-05-07T04:50:59;9.00;;;4.97;;
4810;SDS011;2419;51.276;6.472;2023-05-07T04:53:27;4.50;;;3.80;;
4810;SDS011;2419;51.276;6.472;2023-05-07T04:55:57;4.70;;;3.83;;
4810;SDS011;2419;51.276;6.472;2023-05-07T04:58:31;6.87;;;3.73;;
4810;SDS011;2419;51.276;6.472;2023-05-07T05:00:59;5.80;;;3.70;;
4810;SDS011;2419;51.276;6.472;2023-05-07T05:03:28;3.77;;;3.20;;
4810;SDS011;2419;51.276;6.472;2023-05-07T05:05:58;8.73;;;3.80;;
4810;SDS011;2419;51.276;6.472;2023-05-07T05:08:30;4.83;;;3.60;;
4810;SDS011;2419;51.276;6.472;2023-05-07T05:11:01;4.23;;;3.60;;
4810;SDS011;2419;51.276;6.472;2023-05-07T05:13:32;4.57;;;3.50;;
4810;SDS011;2419;51.276;6.472;2023-05-07T05:16:06;3.17;;;2.87;;
4810;SDS011;2419;51.276;6.472;2023-05-07T05:18:34;4.93;;;3.90;;
4810;SDS011;2419;51.276;6.472;2023-05-07T05:21:03;4.00;;;3.60;;
4810;SDS011;2419;51.276;6.472;2023-05-07T05:23:32;5.40;;;3.17;;
4810;SDS011;2419;51.276;6.472;2023-05-07T05:26:01;3.50;;;3.20;;
4810;SDS011;2419;51.276;6.472;2023-05-07T05:28:31;3.67;;;3.37;;
4810;SDS011;2419;51.276;6.472;2023-05-07T05:30:59;4.77;;;3.57;;
4810;SDS011;2419;51.276;6.472;2023-05-07T05:33:31;5.03;;;3.10;;
4810;SDS011;2419;51.276;6.472;2023-05-07T05:36:03;4.00;;;2.90;;
4810;SDS011;2419;51.276;6.472;2023-05-07T05:38:32;5.27;;;2.93;;
4810;SDS011;2419;51.276;6.472;2023-05-07T05:41:01;3.83;;;3.40;;
4810;SDS011;2419;51.276;6.472;2023-05-07T05:43:29;5.23;;;3.20;;
4810;SDS011;2419;51.276;6.472;2023-05-07T05:45:58;6.20;;;3.37;;
4810;SDS011;2419;51.276;6.472;2023-05-07T05:48:28;5.70;;;3.90;;
4810;SDS011;2419;51.276;6.472;2023-05-07T05:50:58;4.57;;;2.77;;
4810;SDS011;2419;51.276;6.472;2023-05-07T05:53:26;4.00;;;3.17;;
4810;SDS011;2419;51.276;6.472;2023-05-07T05:55:54;2.27;;;2.07;;
4810;SDS011;2419;51.276;6.472;2023-05-07T05:58:23;5.30;;;2.53;;
4810;SDS011;2419;51.276;6.472;2023-05-07T06:00:56;3.50;;;2.40;;
4810;SDS011;2419;51.276;6.472;2023-05-07T06:03:26;7.13;;;2.47;;
4810;SDS011;2419;51.276;6.472;2023-05-07T06:05:57;3.20;;;2.90;;
4810;SDS011;2419;51.276;6.472;2023-05-07T06:08:28;3.97;;;2.97;;
4810;SDS011;2419;51.276;6.472;2023-05-07T06:10:57;5.07;;;2.80;;
4810;SDS011;2419;51.276;6.472;2023-05-07T06:13:28;2.60;;;2.37;;
4810;SDS011;2419;51.276;6.472;2023-05-07T06:15:56;2.80;;;2.60;;
4810;SDS011;2419;51.276;6.472;2023-05-07T06:18:24;4.60;;;2.60;;
4810;SDS011;2419;51.276;6.472;2023-05-07T06:20:52;2.87;;;2.57;;
4810;SDS011;2419;51.276;6.472;2023-05-07T06:23:26;3.93;;;3.10;;
4810;SDS011;2419;51.276;6.472;2023-05-07T06:25:54;3.07;;;2.80;;
4810;SDS011;2419;51.276;6.472;2023-05-07T06:28:29;2.43;;;2.30;;
4810;SDS011;2419;51.276;6.472;2023-05-07T06:31:13;6.90;;;2.27;;
4810;SDS011;2419;51.276;6.472;2023-05-07T06:33:51;2.93;;;2.63;;
4810;SDS011;2419;51.276;6.472;2023-05-07T06:36:21;3.87;;;3.17;;
4810;SDS011;2419;51.276;6.472;2023-05-07T06:38:50;3.67;;;2.50;;
4810;SDS011;2419;51.276;6.472;2023-05-07T06:41:19;2.87;;;2.63;;
4810;SDS011;2419;51.276;6.472;2023-05-07T06:43:49;3.73;;;3.17;;
4810;SDS011;2419;51.276;6.472;2023-05-07T06:46:28;3.70;;;2.73;;
4810;SDS011;2419;51.276;6.472;2023-05-07T06:48:57;5.70;;;3.40;;
4810;SDS011;2419;51.276;6.472;2023-05-07T06:51:26;3.40;;;2.27;;
4810;SDS011;2419;51.276;6.472;2023-05-07T06:53:56;3.90;;;3.13;;
4810;SDS011;2419;51.276;6.472;2023-05-07T06:56:24;4.87;;;3.43;;
4810;SDS011;2419;51.276;6.472;2023-05-07T06:58:54;4.20;;;2.80;;
4810;SDS011;2419;51.276;6.472;2023-05-07T07:01:22;3.80;;;2.70;;
4810;SDS011;2419;51.276;6.472;2023-05-07T07:03:50;4.40;;;3.00;;
4810;SDS011;2419;51.276;6.472;2023-05-07T07:06:20;3.20;;;2.90;;
4810;SDS011;2419;51.276;6.472;2023-05-07T07:08:48;3.30;;;3.00;;
4810;SDS011;2419;51.276;6.472;2023-05-07T07:11:17;4.60;;;3.17;;
4810;SDS011;2419;51.276;6.472;2023-05-07T07:13:45;2.77;;;2.43;;
4810;SDS011;2419;51.276;6.472;2023-05-07T07:16:14;4.20;;;3.13;;
4810;SDS011;2419;51.276;6.472;2023-05-07T07:18:44;4.40;;;3.23;;
4810;SDS011;2419;51.276;6.472;2023-05-07T07:21:11;3.30;;;2.70;;
4810;SDS011;2419;51.276;6.472;2023-05-07T07:23:40;3.90;;;2.87;;
4810;SDS011;2419;51.276;6.472;2023-05-07T07:26:08;2.97;;;2.53;;
4810;SDS011;2419;51.276;6.472;2023-05-07T07:28:41;4.63;;;2.97;;
4810;SDS011;2419;51.276;6.472;2023-05-07T07:31:14;3.37;;;3.00;;
4810;SDS011;2419;51.276;6.472;2023-05-07T07:33:43;5.70;;;3.10;;
4810;SDS011;2419;51.276;6.472;2023-05-07T07:36:11;4.50;;;3.40;;
4810;SDS011;2419;51.276;6.472;2023-05-07T07:38:39;4.30;;;2.60;;
4810;SDS011;2419;51.276;6.472;2023-05-07T07:41:08;3.40;;;2.60;;
4810;SDS011;2419;51.276;6.472;2023-05-07T07:43:36;3.53;;;2.93;;
4810;SDS011;2419;51.276;6.472;2023-05-07T07:46:04;2.67;;;2.43;;
4810;SDS011;2419;51.276;6.472;2023-05-07T07:48:34;4.07;;;2.80;;
4810;SDS011;2419;51.276;6.472;2023-05-07T07:51:03;3.80;;;2.43;;
4810;SDS011;2419;51.276;6.472;2023-05-07T07:53:31;4.60;;;2.70;;
4810;SDS011;2419;51.276;6.472;2023-05-07T07:55:59;2.87;;;2.67;;
4810;SDS011;2419;51.276;6.472;2023-05-07T07:58:32;4.07;;;2.87;;
4810;SDS011;2419;51.276;6.472;2023-05-07T08:01:02;2.70;;;2.20;;
4810;SDS011;2419;51.276;6.472;2023-05-07T08:03:30;4.27;;;2.33;;
4810;SDS011;2419;51.276;6.472;2023-05-07T08:06:02;5.27;;;2.87;;
4810;SDS011;2419;51.276;6.472;2023-05-07T08:08:33;2.50;;;2.20;;
4810;SDS011;2419;51.276;6.472;2023-05-07T08:11:01;4.27;;;2.43;;
4810;SDS011;2419;51.276;6.472;2023-05-07T08:13:31;3.80;;;2.40;;
4810;SDS011;2419;51.276;6.472;2023-05-07T08:15:59;3.23;;;2.40;;
4810;SDS011;2419;51.276;6.472;2023-05-07T08:18:28;3.50;;;2.43;;
4810;SDS011;2419;51.276;6.472;2023-05-07T08:20:59;4.43;;;2.40;;
4810;SDS011;2419;51.276;6.472;2023-05-07T08:23:30;3.20;;;2.17;;
4810;SDS011;2419;51.276;6.472;2023-05-07T08:25:58;2.87;;;2.10;;
4810;SDS011;2419;51.276;6.472;2023-05-07T08:28:27;2.90;;;2.17;;
4810;SDS011;2419;51.276;6.472;2023-05-07T08:30:55;2.10;;;1.90;;
4810;SDS011;2419;51.276;6.472;2023-05-07T08:33:29;2.13;;;1.93;;
4810;SDS011;2419;51.276;6.472;2023-05-07T08:35:57;2.57;;;2.27;;
4810;SDS011;2419;51.276;6.472;2023-05-07T08:38:27;1.93;;;1.83;;
4810;SDS011;2419;51.276;6.472;2023-05-07T08:40:55;1.63;;;1.47;;
4810;SDS011;2419;51.276;6.472;2023-05-07T08:43:23;3.10;;;2.10;;
4810;SDS011;2419;51.276;6.472;2023-05-07T08:45:54;2.27;;;1.60;;
4810;SDS011;2419;51.276;6.472;2023-05-07T08:48:27;2.03;;;1.70;;
4810;SDS011;2419;51.276;6.472;2023-05-07T08:51:05;2.47;;;2.07;;
4810;SDS011;2419;51.276;6.472;2023-05-07T08:53:35;2.20;;;1.73;;
4810;SDS011;2419;51.276;6.472;2023-05-07T08:56:06;2.90;;;2.10;;
4810;SDS011;2419;51.276;6.472;2023-05-07T08:58:38;3.57;;;2.57;;
4810;SDS011;2419;51.276;6.472;2023-05-07T09:01:07;4.23;;;2.30;;
4810;SDS011;2419;51.276;6.472;2023-05-07T09:03:37;4.27;;;2.97;;
4810;SDS011;2419;51.276;6.472;2023-05-07T09:06:06;3.50;;;2.13;;
4810;SDS011;2419;51.276;6.472;2023-05-07T09:08:35;3.00;;;2.57;;
4810;SDS011;2419;51.276;6.472;2023-05-07T09:11:05;2.67;;;2.40;;
4810;SDS011;2419;51.276;6.472;2023-05-07T09:13:35;3.27;;;2.77;;
4810;SDS011;2419;51.276;6.472;2023-05-07T09:16:10;7.20;;;3.37;;
4810;SDS011;2419;51.276;6.472;2023-05-07T09:18:42;3.40;;;2.90;;
4810;SDS011;2419;51.276;6.472;2023-05-07T09:21:14;3.13;;;2.83;;
4810;SDS011;2419;51.276;6.472;2023-05-07T09:23:45;5.70;;;3.10;;
4810;SDS011;2419;51.276;6.472;2023-05-07T09:26:15;2.93;;;2.13;;
4810;SDS011;2419;51.276;6.472;2023-05-07T09:28:44;7.33;;;3.77;;
4810;SDS011;2419;51.276;6.472;2023-05-07T09:31:13;4.83;;;2.57;;
4810;SDS011;2419;51.276;6.472;2023-05-07T09:33:42;3.60;;;2.40;;
4810;SDS011;2419;51.276;6.472;2023-05-07T09:36:12;4.17;;;2.73;;
4810;SDS011;2419;51.276;6.472;2023-05-07T09:38:40;4.10;;;2.10;;
4810;SDS011;2419;51.276;6.472;2023-05-07T09:41:10;1.70;;;1.60;;
4810;SDS011;2419;51.276;6.472;2023-05-07T09:43:53;2.03;;;1.87;;
4810;SDS011;2419;51.276;6.472;2023-05-07T09:46:27;2.13;;;1.90;;
4810;SDS011;2419;51.276;6.472;2023-05-07T09:49:01;2.83;;;1.97;;
4810;SDS011;2419;51.276;6.472;2023-05-07T09:51:36;2.90;;;2.23;;
4810;SDS011;2419;51.276;6.472;2023-05-07T09:54:10;3.80;;;2.50;;
4810;SDS011;2419;51.276;6.472;2023-05-07T09:56:42;2.30;;;2.10;;
4810;SDS011;2419;51.276;6.472;2023-05-07T09:59:12;2.27;;;2.03;;
4810;SDS011;2419;51.276;6.472;2023-05-07T10:01:43;3.93;;;2.20;;
4810;SDS011;2419;51.276;6.472;2023-05-07T10:04:12;2.37;;;2.07;;
4810;SDS011;2419;51.276;6.472;2023-05-07T10:06:43;3.53;;;2.80;;
4810;SDS011;2419;51.276;6.472;2023-05-07T10:09:13;5.70;;;2.50;;
4810;SDS011;2419;51.276;6.472;2023-05-07T10:11:44;3.23;;;2.60;;
4810;SDS011;2419;51.276;6.472;2023-05-07T10:14:13;4.07;;;2.33;;
4810;SDS011;2419;51.276;6.472;2023-05-07T10:16:42;2.30;;;2.00;;
4810;SDS011;2419;51.276;6.472;2023-05-07T10:19:15;2.60;;;1.83;;
4810;SDS011;2419;51.276;6.472;2023-05-07T10:21:48;2.57;;;2.03;;
4810;SDS011;2419;51.276;6.472;2023-05-07T10:24:25;4.13;;;1.83;;
4810;SDS011;2419;51.276;6.472;2023-05-07T10:26:56;2.77;;;1.90;;
4810;SDS011;2419;51.276;6.472;2023-05-07T10:29:30;2.57;;;2.17;;
4810;SDS011;2419;51.276;6.472;2023-05-07T10:32:13;3.00;;;1.83;;
4810;SDS011;2419;51.276;6.472;2023-05-07T10:34:53;2.43;;;1.90;;
4810;SDS011;2419;51.276;6.472;2023-05-07T10:37:23;2.67;;;2.00;;
4810;SDS011;2419;51.276;6.472;2023-05-07T10:39:54;2.50;;;1.97;;
4810;SDS011;2419;51.276;6.472;2023-05-07T10:42:26;4.50;;;2.23;;
4810;SDS011;2419;51.276;6.472;2023-05-07T10:44:57;2.20;;;1.80;;
4810;SDS011;2419;51.276;6.472;2023-05-07T10:47:28;4.90;;;1.70;;
4810;SDS011;2419;51.276;6.472;2023-05-07T10:59:31;2.23;;;1.60;;
4810;SDS011;2419;51.276;6.472;2023-05-07T11:02:12;1.50;;;1.40;;
4810;SDS011;2419;51.276;6.472;2023-05-07T11:08:02;2.63;;;1.50;;
4810;SDS011;2419;51.276;6.472;2023-05-07T11:10:50;1.90;;;1.70;;
4810;SDS011;2419;51.276;6.472;2023-05-07T11:13:40;1.30;;;1.20;;
4810;SDS011;2419;51.276;6.472;2023-05-07T11:16:20;3.63;;;1.73;;
4810;SDS011;2419;51.276;6.472;2023-05-07T11:18:56;2.03;;;1.70;;
4810;SDS011;2419;51.276;6.472;2023-05-07T11:21:31;2.00;;;1.70;;
4810;SDS011;2419;51.276;6.472;2023-05-07T11:24:24;2.70;;;1.90;;
4810;SDS011;2419;51.276;6.472;2023-05-07T11:26:56;1.60;;;1.47;;
4810;SDS011;2419;51.276;6.472;2023-05-07T11:29:26;2.30;;;1.50;;
4810;SDS011;2419;51.276;6.472;2023-05-07T11:32:03;1.73;;;1.53;;
4810;SDS011;2419;51.276;6.472;2023-05-07T11:34:38;1.40;;;1.30;;
4810;SDS011;2419;51.276;6.472;2023-05-07T11:37:08;3.77;;;1.70;;
4810;SDS011;2419;51.276;6.472;2023-05-07T11:40:02;2.23;;;1.50;;
4810;SDS011;2419;51.276;6.472;2023-05-07T11:42:32;1.93;;;1.70;;
4810;SDS011;2419;51.276;6.472;2023-05-07T11:45:01;4.30;;;1.23;;
4810;SDS011;2419;51.276;6.472;2023-05-07T11:47:32;1.57;;;1.47;;
4810;SDS011;2419;51.276;6.472;2023-05-07T11:50:03;1.50;;;1.40;;
4810;SDS011;2419;51.276;6.472;2023-05-07T11:52:32;1.70;;;1.30;;
4810;SDS011;2419;51.276;6.472;2023-05-07T11:55:01;2.13;;;1.70;;
4810;SDS011;2419;51.276;6.472;2023-05-07T11:57:32;4.77;;;1.50;;
4810;SDS011;2419;51.276;6.472;2023-05-07T12:00:00;1.43;;;1.30;;
4810;SDS011;2419;51.276;6.472;2023-05-07T12:02:39;2.20;;;1.53;;
4810;SDS011;2419;51.276;6.472;2023-05-07T12:05:08;1.47;;;1.37;;
4810;SDS011;2419;51.276;6.472;2023-05-07T12:07:37;2.80;;;1.60;;
4810;SDS011;2419;51.276;6.472;2023-05-07T12:10:05;2.23;;;1.37;;
4810;SDS011;2419;51.276;6.472;2023-05-07T12:12:37;3.67;;;1.53;;
4810;SDS011;2419;51.276;6.472;2023-05-07T12:15:06;2.93;;;1.70;;
4810;SDS011;2419;51.276;6.472;2023-05-07T12:17:35;1.80;;;1.60;;
4810;SDS011;2419;51.276;6.472;2023-05-07T12:20:07;1.47;;;1.37;;
4810;SDS011;2419;51.276;6.472;2023-05-07T12:22:36;3.57;;;1.73;;
4810;SDS011;2419;51.276;6.472;2023-05-07T12:25:05;1.63;;;1.47;;
4810;SDS011;2419;51.276;6.472;2023-05-07T12:27:36;1.93;;;1.30;;
4810;SDS011;2419;51.276;6.472;2023-05-07T12:30:05;2.60;;;1.40;;
4810;SDS011;2419;51.276;6.472;2023-05-07T12:32:33;3.80;;;1.83;;
4810;SDS011;2419;51.276;6.472;2023-05-07T12:35:03;2.70;;;1.63;;
4810;SDS011;2419;51.276;6.472;2023-05-07T12:37:35;2.10;;;1.70;;
4810;SDS011;2419;51.276;6.472;2023-05-07T12:40:03;1.53;;;1.33;;
4810;SDS011;2419;51.276;6.472;2023-05-07T12:42:35;1.30;;;1.20;;
4810;SDS011;2419;51.276;6.472;2023-05-07T12:45:10;4.10;;;1.23;;
4810;SDS011;2419;51.276;6.472;2023-05-07T12:47:43;1.43;;;1.30;;
4810;SDS011;2419;51.276;6.472;2023-05-07T12:50:13;1.80;;;1.40;;
4810;SDS011;2419;51.276;6.472;2023-05-07T12:52:42;1.50;;;1.37;;
4810;SDS011;2419;51.276;6.472;2023-05-07T12:55:12;1.50;;;1.13;;
4810;SDS011;2419;51.276;6.472;2023-05-07T12:57:42;1.30;;;1.20;;
4810;SDS011;2419;51.276;6.472;2023-05-07T13:00:13;4.03;;;1.40;;
4810;SDS011;2419;51.276;6.472;2023-05-07T13:02:42;2.00;;;1.40;;
4810;SDS011;2419;51.276;6.472;2023-05-07T13:05:11;1.57;;;1.10;;
4810;SDS011;2419;51.276;6.472;2023-05-07T13:07:41;2.37;;;1.27;;
4810;SDS011;2419;51.276;6.472;2023-05-07T13:10:21;1.73;;;1.40;;
4810;SDS011;2419;51.276;6.472;2023-05-07T13:12:49;1.50;;;1.40;;
4810;SDS011;2419;51.276;6.472;2023-05-07T13:15:18;1.27;;;1.17;;
4810;SDS011;2419;51.276;6.472;2023-05-07T13:17:46;1.47;;;1.10;;
4810;SDS011;2419;51.276;6.472;2023-05-07T13:20:16;1.47;;;1.30;;
4810;SDS011;2419;51.276;6.472;2023-05-07T13:22:44;2.60;;;1.50;;
4810;SDS011;2419;51.276;6.472;2023-05-07T13:25:12;1.03;;;0.93;;
4810;SDS011;2419;51.276;6.472;2023-05-07T13:27:40;1.70;;;1.60;;
4810;SDS011;2419;51.276;6.472;2023-05-07T13:30:08;2.50;;;1.50;;
4810;SDS011;2419;51.276;6.472;2023-05-07T13:32:36;2.50;;;1.73;;
4810;SDS011;2419;51.276;6.472;2023-05-07T13:35:05;1.97;;;1.40;;
4810;SDS011;2419;51.276;6.472;2023-05-07T13:37:36;2.63;;;1.67;;
4810;SDS011;2419;51.276;6.472;2023-05-07T13:40:04;1.83;;;1.60;;
4810;SDS011;2419;51.276;6.472;2023-05-07T13:42:34;2.00;;;1.67;;
4810;SDS011;2419;51.276;6.472;2023-05-07T13:45:02;3.83;;;1.67;;
4810;SDS011;2419;51.276;6.472;2023-05-07T13:47:31;3.07;;;1.40;;
4810;SDS011;2419;51.276;6.472;2023-05-07T13:49:59;1.57;;;1.33;;
4810;SDS011;2419;51.276;6.472;2023-05-07T13:52:27;4.33;;;3.00;;
4810;SDS011;2419;51.276;6.472;2023-05-07T13:54:56;3.57;;;2.20;;
4810;SDS011;2419;51.276;6.472;2023-05-07T13:57:28;3.83;;;2.20;;
4810;SDS011;2419;51.276;6.472;2023-05-07T14:00:19;3.73;;;2.30;;
4810;SDS011;2419;51.276;6.472;2023-05-07T14:02:47;4.47;;;3.13;;
4810;SDS011;2419;51.276;6.472;2023-05-07T14:05:16;4.20;;;2.83;;
4810;SDS011;2419;51.276;6.472;2023-05-07T14:07:45;3.23;;;2.00;;
4810;SDS011;2419;51.276;6.472;2023-05-07T14:10:15;4.70;;;2.00;;
4810;SDS011;2419;51.276;6.472;2023-05-07T14:12:43;1.77;;;1.50;;
4810;SDS011;2419;51.276;6.472;2023-05-07T14:15:12;2.33;;;1.70;;
4810;SDS011;2419;51.276;6.472;2023-05-07T14:17:41;4.00;;;2.13;;
4810;SDS011;2419;51.276;6.472;2023-05-07T14:20:09;4.73;;;2.17;;
4810;SDS011;2419;51.276;6.472;2023-05-07T14:22:38;2.87;;;2.03;;
4810;SDS011;2419;51.276;6.472;2023-05-07T14:25:07;5.90;;;1.97;;
4810;SDS011;2419;51.276;6.472;2023-05-07T14:27:38;3.03;;;2.00;;
4810;SDS011;2419;51.276;6.472;2023-05-07T14:30:06;2.77;;;2.00;;
4810;SDS011;2419;51.276;6.472;2023-05-07T14:32:35;2.80;;;2.37;;
4810;SDS011;2419;51.276;6.472;2023-05-07T14:35:03;3.63;;;2.00;;
4810;SDS011;2419;51.276;6.472;2023-05-07T14:37:32;2.33;;;1.70;;
4810;SDS011;2419;51.276;6.472;2023-05-07T14:40:00;2.97;;;1.90;;
4810;SDS011;2419;51.276;6.472;2023-05-07T14:42:28;2.97;;;1.60;;
4810;SDS011;2419;51.276;6.472;2023-05-07T14:44:58;1.70;;;1.60;;
4810;SDS011;2419;51.276;6.472;2023-05-07T14:47:26;4.87;;;2.07;;
4810;SDS011;2419;51.276;6.472;2023-05-07T14:49:54;2.20;;;1.87;;
4810;SDS011;2419;51.276;6.472;2023-05-07T14:52:23;3.90;;;2.67;;
4810;SDS011;2419;51.276;6.472;2023-05-07T14:54:52;5.13;;;2.70;;
4810;SDS011;2419;51.276;6.472;2023-05-07T14:57:20;4.10;;;2.90;;
4810;SDS011;2419;51.276;6.472;2023-05-07T14:59:48;4.77;;;2.80;;
4810;SDS011;2419;51.276;6.472;2023-05-07T15:02:17;2.60;;;2.30;;
4810;SDS011;2419;51.276;6.472;2023-05-07T15:04:46;3.53;;;2.80;;
4810;SDS011;2419;51.276;6.472;2023-05-07T15:07:15;3.30;;;2.77;;
4810;SDS011;2419;51.276;6.472;2023-05-07T15:09:44;3.30;;;3.00;;
4810;SDS011;2419;51.276;6.472;2023-05-07T15:12:12;4.37;;;2.37;;
4810;SDS011;2419;51.276;6.472;2023-05-07T15:14:40;5.13;;;3.10;;
4810;SDS011;2419;51.276;6.472;2023-05-07T15:17:08;5.70;;;3.73;;
4810;SDS011;2419;51.276;6.472;2023-05-07T15:19:38;3.60;;;3.20;;
4810;SDS011;2419;51.276;6.472;2023-05-07T15:22:06;9.10;;;3.30;;
4810;SDS011;2419;51.276;6.472;2023-05-07T15:24:34;3.63;;;3.23;;
4810;SDS011;2419;51.276;6.472;2023-05-07T15:27:02;6.83;;;4.37;;
4810;SDS011;2419;51.276;6.472;2023-05-07T15:29:30;3.83;;;3.43;;
4810;SDS011;2419;51.276;6.472;2023-05-07T15:32:00;6.20;;;4.40;;
4810;SDS011;2419;51.276;6.472;2023-05-07T15:34:28;5.43;;;4.30;;
4810;SDS011;2419;51.276;6.472;2023-05-07T15:36:58;5.30;;;4.30;;
4810;SDS011;2419;51.276;6.472;2023-05-07T15:39:26;5.63;;;3.80;;
4810;SDS011;2419;51.276;6.472;2023-05-07T15:41:54;6.23;;;4.40;;
4810;SDS011;2419;51.276;6.472;2023-05-07T15:44:22;6.87;;;5.03;;
4810;SDS011;2419;51.276;6.472;2023-05-07T15:46:53;7.63;;;4.67;;